sensor_id;sensor_type;location;lat;lon;timestamp;P1;durP1;ratioP1;P2;durP2;ratioP2
21326;SDS011;10822;51.532;6.770;2024-01-16T00:00:34;10.38;;;6.20;;
21326;SDS011;10822;51.532;6.770;2024-01-16T00:03:00;10.10;;;5.45;;
21326;SDS011;10822;51.532;6.770;2024-01-16T00:05:26;13.32;;;5.53;;
21326;SDS011;10822;51.532;6.770;2024-01-16T00:07:52;11.88;;;5.45;;
21326;SDS011;10822;51.532;6.770;2024-01-16T00:10:18;13.75;;;5.85;;
21326;SDS011;10822;51.532;6.770;2024-01-16T00:12:44;10.75;;;5.70;;
21326;SDS011;10822;51.532;6.770;2024-01-16T00:15:10;8.38;;;5.55;;
21326;SDS011;10822;51.532;6.770;2024-01-16T00:17:36;9.35;;;5.82;;
21326;SDS011;10822;51.532;6.770;2024-01-16T00:20:02;10.85;;;5.32;;
21326;SDS011;10822;51.532;6.770;2024-01-16T00:22:30;10.65;;;5.20;;
21326;SDS011;10822;51.532;6.770;2024-01-16T00:24:56;8.80;;;5.40;;
21326;SDS011;10822;51.532;6.770;2024-01-16T00:27:22;10.95;;;5.00;;
21326;SDS011;10822;51.532;6.770;2024-01-16T00:29:48;9.60;;;5.07;;
21326;SDS011;10822;51.532;6.770;2024-01-16T00:32:14;7.82;;;4.63;;
21326;SDS011;10822;51.532;6.770;2024-01-16T00:34:41;12.55;;;4.90;;
21326;SDS011;10822;51.532;6.770;2024-01-16T00:37:07;10.75;;;5.15;;
21326;SDS011;10822;51.532;6.770;2024-01-16T00:39:33;9.73;;;4.78;;
21326;SDS011;10822;51.532;6.770;2024-01-16T00:41:59;8.73;;;4.35;;
21326;SDS011;10822;51.532;6.770;2024-01-16T00:44:25;7.95;;;4.18;;
21326;SDS011;10822;51.532;6.770;2024-01-16T00:46:51;8.80;;;5.00;;
21326;SDS011;10822;51.532;6.770;2024-01-16T00:49:17;9.02;;;5.13;;
21326;SDS011;10822;51.532;6.770;2024-01-16T00:51:43;10.20;;;5.00;;
21326;SDS011;10822;51.532;6.770;2024-01-16T00:54:09;10.20;;;4.28;;
21326;SDS011;10822;51.532;6.770;2024-01-16T00:56:35;9.93;;;4.80;;
21326;SDS011;10822;51.532;6.770;2024-01-16T00:59:01;10.00;;;4.38;;
21326;SDS011;10822;51.532;6.770;2024-01-16T01:01:27;12.98;;;4.28;;
21326;SDS011;10822;51.532;6.770;2024-01-16T01:03:53;7.88;;;4.55;;
21326;SDS011;10822;51.532;6.770;2024-01-16T01:06:20;11.48;;;5.20;;
21326;SDS011;10822;51.532;6.770;2024-01-16T01:08:46;10.82;;;4.80;;
21326;SDS011;10822;51.532;6.770;2024-01-16T01:11:12;9.82;;;4.80;;
21326;SDS011;10822;51.532;6.770;2024-01-16T01:13:38;8.25;;;4.68;;
21326;SDS011;10822;51.532;6.770;2024-01-16T01:16:04;9.18;;;4.70;;
21326;SDS011;10822;51.532;6.770;2024-01-16T01:18:30;11.52;;;4.78;;
21326;SDS011;10822;51.532;6.770;2024-01-16T01:20:56;9.05;;;5.28;;
21326;SDS011;10822;51.532;6.770;2024-01-16T01:23:22;7.97;;;4.45;;
21326;SDS011;10822;51.532;6.770;2024-01-16T01:25:48;10.68;;;5.15;;
21326;SDS011;10822;51.532;6.770;2024-01-16T01:28:14;11.60;;;4.97;;
21326;SDS011;10822;51.532;6.770;2024-01-16T01:30:40;12.02;;;5.07;;
21326;SDS011;10822;51.532;6.770;2024-01-16T01:33:05;12.55;;;4.57;;
21326;SDS011;10822;51.532;6.770;2024-01-16T01:35:31;9.27;;;4.93;;
21326;SDS011;10822;51.532;6.770;2024-01-16T01:37:57;10.60;;;4.78;;
21326;SDS011;10822;51.532;6.770;2024-01-16T01:40:23;16.00;;;4.43;;
21326;SDS011;10822;51.532;6.770;2024-01-16T01:42:49;8.07;;;4.70;;
21326;SDS011;10822;51.532;6.770;2024-01-16T01:45:15;11.20;;;4.78;;
21326;SDS011;10822;51.532;6.770;2024-01-16T01:47:41;10.05;;;4.68;;
21326;SDS011;10822;51.532;6.770;2024-01-16T01:50:08;10.48;;;4.90;;
21326;SDS011;10822;51.532;6.770;2024-01-16T01:52:34;11.77;;;5.00;;
21326;SDS011;10822;51.532;6.770;2024-01-16T01:55:00;9.13;;;4.90;;
21326;SDS011;10822;51.532;6.770;2024-01-16T01:57:27;8.48;;;5.20;;
21326;SDS011;10822;51.532;6.770;2024-01-16T01:59:53;9.27;;;4.40;;
21326;SDS011;10822;51.532;6.770;2024-01-16T02:02:19;10.82;;;4.95;;
21326;SDS011;10822;51.532;6.770;2024-01-16T02:04:46;9.45;;;5.28;;
21326;SDS011;10822;51.532;6.770;2024-01-16T02:07:12;10.52;;;5.38;;
21326;SDS011;10822;51.532;6.770;2024-01-16T02:09:40;11.73;;;5.05;;
21326;SDS011;10822;51.532;6.770;2024-01-16T02:12:06;10.45;;;5.30;;
21326;SDS011;10822;51.532;6.770;2024-01-16T02:14:32;10.27;;;5.40;;
21326;SDS011;10822;51.532;6.770;2024-01-16T02:16:58;9.63;;;5.45;;
21326;SDS011;10822;51.532;6.770;2024-01-16T02:19:24;10.88;;;5.10;;
21326;SDS011;10822;51.532;6.770;2024-01-16T02:21:50;9.25;;;5.20;;
21326;SDS011;10822;51.532;6.770;2024-01-16T02:24:19;11.10;;;4.85;;
21326;SDS011;10822;51.532;6.770;2024-01-16T02:26:45;10.20;;;5.43;;
21326;SDS011;10822;51.532;6.770;2024-01-16T02:29:12;7.90;;;4.75;;
21326;SDS011;10822;51.532;6.770;2024-01-16T02:31:38;11.40;;;5.50;;
21326;SDS011;10822;51.532;6.770;2024-01-16T02:34:04;12.05;;;5.75;;
21326;SDS011;10822;51.532;6.770;2024-01-16T02:36:30;10.10;;;4.97;;
21326;SDS011;10822;51.532;6.770;2024-01-16T02:38:56;9.77;;;5.18;;
21326;SDS011;10822;51.532;6.770;2024-01-16T02:41:22;10.02;;;5.30;;
21326;SDS011;10822;51.532;6.770;2024-01-16T02:43:48;11.80;;;5.65;;
21326;SDS011;10822;51.532;6.770;2024-01-16T02:46:14;8.90;;;5.70;;
21326;SDS011;10822;51.532;6.770;2024-01-16T02:48:40;10.27;;;5.55;;
21326;SDS011;10822;51.532;6.770;2024-01-16T02:51:07;10.15;;;6.03;;
21326;SDS011;10822;51.532;6.770;2024-01-16T02:53:33;9.82;;;6.38;;
21326;SDS011;10822;51.532;6.770;2024-01-16T02:55:59;12.85;;;7.07;;
21326;SDS011;10822;51.532;6.770;2024-01-16T02:58:29;13.23;;;6.47;;
21326;SDS011;10822;51.532;6.770;2024-01-16T03:00:55;12.00;;;6.45;;
21326;SDS011;10822;51.532;6.770;2024-01-16T03:03:22;13.77;;;6.70;;
21326;SDS011;10822;51.532;6.770;2024-01-16T03:05:48;12.70;;;6.78;;
21326;SDS011;10822;51.532;6.770;2024-01-16T03:08:14;10.95;;;6.80;;
21326;SDS011;10822;51.532;6.770;2024-01-16T03:10:40;10.80;;;6.60;;
21326;SDS011;10822;51.532;6.770;2024-01-16T03:13:07;12.63;;;7.00;;
21326;SDS011;10822;51.532;6.770;2024-01-16T03:15:33;11.07;;;6.78;;
21326;SDS011;10822;51.532;6.770;2024-01-16T03:17:59;13.98;;;6.97;;
21326;SDS011;10822;51.532;6.770;2024-01-16T03:20:26;14.23;;;7.32;;
21326;SDS011;10822;51.532;6.770;2024-01-16T03:22:52;11.55;;;7.10;;
21326;SDS011;10822;51.532;6.770;2024-01-16T03:25:18;12.00;;;7.35;;
21326;SDS011;10822;51.532;6.770;2024-01-16T03:27:44;12.65;;;7.78;;
21326;SDS011;10822;51.532;6.770;2024-01-16T03:30:11;12.82;;;7.70;;
21326;SDS011;10822;51.532;6.770;2024-01-16T03:32:37;11.48;;;7.43;;
21326;SDS011;10822;51.532;6.770;2024-01-16T03:35:06;11.57;;;7.43;;
21326;SDS011;10822;51.532;6.770;2024-01-16T03:37:33;11.60;;;6.80;;
21326;SDS011;10822;51.532;6.770;2024-01-16T03:39:59;10.55;;;6.82;;
21326;SDS011;10822;51.532;6.770;2024-01-16T03:42:25;13.45;;;7.68;;
21326;SDS011;10822;51.532;6.770;2024-01-16T03:44:51;12.77;;;7.72;;
21326;SDS011;10822;51.532;6.770;2024-01-16T03:47:17;14.73;;;7.28;;
21326;SDS011;10822;51.532;6.770;2024-01-16T03:49:43;16.75;;;7.75;;
21326;SDS011;10822;51.532;6.770;2024-01-16T03:52:09;13.75;;;7.97;;
21326;SDS011;10822;51.532;6.770;2024-01-16T03:54:35;15.70;;;8.00;;
21326;SDS011;10822;51.532;6.770;2024-01-16T03:57:01;15.32;;;8.50;;
21326;SDS011;10822;51.532;6.770;2024-01-16T03:59:27;12.60;;;8.02;;
21326;SDS011;10822;51.532;6.770;2024-01-16T04:01:53;15.20;;;8.38;;
21326;SDS011;10822;51.532;6.770;2024-01-16T04:04:19;14.70;;;7.65;;
21326;SDS011;10822;51.532;6.770;2024-01-16T04:06:45;16.75;;;8.07;;
21326;SDS011;10822;51.532;6.770;2024-01-16T04:09:11;17.00;;;8.30;;
21326;SDS011;10822;51.532;6.770;2024-01-16T04:11:39;15.07;;;8.40;;
21326;SDS011;10822;51.532;6.770;2024-01-16T04:14:05;13.77;;;7.75;;
21326;SDS011;10822;51.532;6.770;2024-01-16T04:16:31;17.35;;;9.10;;
21326;SDS011;10822;51.532;6.770;2024-01-16T04:18:57;21.60;;;8.80;;
21326;SDS011;10822;51.532;6.770;2024-01-16T04:21:24;14.75;;;8.23;;
21326;SDS011;10822;51.532;6.770;2024-01-16T04:23:50;14.00;;;8.52;;
21326;SDS011;10822;51.532;6.770;2024-01-16T04:26:16;13.05;;;8.15;;
21326;SDS011;10822;51.532;6.770;2024-01-16T04:28:42;13.45;;;7.53;;
21326;SDS011;10822;51.532;6.770;2024-01-16T04:31:08;12.52;;;7.35;;
21326;SDS011;10822;51.532;6.770;2024-01-16T04:33:36;16.48;;;6.85;;
21326;SDS011;10822;51.532;6.770;2024-01-16T04:36:02;12.98;;;6.93;;
21326;SDS011;10822;51.532;6.770;2024-01-16T04:38:29;13.85;;;6.32;;
21326;SDS011;10822;51.532;6.770;2024-01-16T04:40:55;14.32;;;6.95;;
21326;SDS011;10822;51.532;6.770;2024-01-16T04:43:20;15.73;;;5.70;;
21326;SDS011;10822;51.532;6.770;2024-01-16T04:45:46;11.50;;;6.13;;
21326;SDS011;10822;51.532;6.770;2024-01-16T04:48:12;14.05;;;6.15;;
21326;SDS011;10822;51.532;6.770;2024-01-16T04:50:38;12.90;;;5.95;;
21326;SDS011;10822;51.532;6.770;2024-01-16T04:53:04;12.57;;;5.60;;
21326;SDS011;10822;51.532;6.770;2024-01-16T04:55:31;11.20;;;5.43;;
21326;SDS011;10822;51.532;6.770;2024-01-16T04:57:57;9.68;;;5.20;;
21326;SDS011;10822;51.532;6.770;2024-01-16T05:00:24;10.65;;;5.10;;
21326;SDS011;10822;51.532;6.770;2024-01-16T05:02:50;11.18;;;6.40;;
21326;SDS011;10822;51.532;6.770;2024-01-16T05:05:16;11.88;;;4.82;;
21326;SDS011;10822;51.532;6.770;2024-01-16T05:07:42;11.63;;;5.13;;
21326;SDS011;10822;51.532;6.770;2024-01-16T05:10:09;9.35;;;4.95;;
21326;SDS011;10822;51.532;6.770;2024-01-16T05:12:41;9.25;;;4.88;;
21326;SDS011;10822;51.532;6.770;2024-01-16T05:15:08;9.30;;;4.50;;
21326;SDS011;10822;51.532;6.770;2024-01-16T05:17:36;8.35;;;4.60;;
21326;SDS011;10822;51.532;6.770;2024-01-16T05:20:03;6.97;;;4.43;;
21326;SDS011;10822;51.532;6.770;2024-01-16T05:22:29;10.75;;;4.65;;
21326;SDS011;10822;51.532;6.770;2024-01-16T05:24:55;10.07;;;4.90;;
21326;SDS011;10822;51.532;6.770;2024-01-16T05:27:21;10.88;;;4.88;;
21326;SDS011;10822;51.532;6.770;2024-01-16T05:29:47;9.63;;;4.75;;
21326;SDS011;10822;51.532;6.770;2024-01-16T05:32:13;8.32;;;3.88;;
21326;SDS011;10822;51.532;6.770;2024-01-16T05:34:39;9.40;;;3.90;;
21326;SDS011;10822;51.532;6.770;2024-01-16T05:37:05;8.10;;;3.88;;
21326;SDS011;10822;51.532;6.770;2024-01-16T05:39:31;8.07;;;3.67;;
21326;SDS011;10822;51.532;6.770;2024-01-16T05:41:57;6.95;;;3.33;;
21326;SDS011;10822;51.532;6.770;2024-01-16T05:44:23;8.93;;;3.90;;
21326;SDS011;10822;51.532;6.770;2024-01-16T05:46:50;9.70;;;3.72;;
21326;SDS011;10822;51.532;6.770;2024-01-16T05:49:16;6.70;;;4.05;;
21326;SDS011;10822;51.532;6.770;2024-01-16T05:51:42;6.90;;;4.18;;
21326;SDS011;10822;51.532;6.770;2024-01-16T05:54:08;7.55;;;4.68;;
21326;SDS011;10822;51.532;6.770;2024-01-16T05:56:33;9.18;;;4.97;;
21326;SDS011;10822;51.532;6.770;2024-01-16T05:58:59;11.18;;;5.82;;
21326;SDS011;10822;51.532;6.770;2024-01-16T06:01:25;13.68;;;6.50;;
21326;SDS011;10822;51.532;6.770;2024-01-16T06:03:54;13.02;;;7.70;;
21326;SDS011;10822;51.532;6.770;2024-01-16T06:06:20;12.85;;;8.35;;
21326;SDS011;10822;51.532;6.770;2024-01-16T06:08:46;20.20;;;11.32;;
21326;SDS011;10822;51.532;6.770;2024-01-16T06:11:12;17.98;;;10.35;;
21326;SDS011;10822;51.532;6.770;2024-01-16T06:13:38;16.73;;;10.18;;
21326;SDS011;10822;51.532;6.770;2024-01-16T06:16:08;16.77;;;9.88;;
21326;SDS011;10822;51.532;6.770;2024-01-16T06:18:34;17.23;;;10.40;;
21326;SDS011;10822;51.532;6.770;2024-01-16T06:21:00;21.40;;;12.70;;
21326;SDS011;10822;51.532;6.770;2024-01-16T06:23:26;25.08;;;12.98;;
21326;SDS011;10822;51.532;6.770;2024-01-16T06:25:52;28.17;;;13.63;;
21326;SDS011;10822;51.532;6.770;2024-01-16T06:28:18;23.13;;;14.65;;
21326;SDS011;10822;51.532;6.770;2024-01-16T06:30:44;23.88;;;13.57;;
21326;SDS011;10822;51.532;6.770;2024-01-16T06:33:10;22.70;;;13.88;;
21326;SDS011;10822;51.532;6.770;2024-01-16T06:35:36;25.05;;;14.82;;
21326;SDS011;10822;51.532;6.770;2024-01-16T06:38:02;26.38;;;13.95;;
21326;SDS011;10822;51.532;6.770;2024-01-16T06:40:28;24.85;;;15.65;;
21326;SDS011;10822;51.532;6.770;2024-01-16T06:42:54;25.65;;;13.85;;
21326;SDS011;10822;51.532;6.770;2024-01-16T06:45:20;27.50;;;14.18;;
21326;SDS011;10822;51.532;6.770;2024-01-16T06:47:46;25.45;;;14.63;;
21326;SDS011;10822;51.532;6.770;2024-01-16T06:50:12;23.40;;;12.93;;
21326;SDS011;10822;51.532;6.770;2024-01-16T06:52:38;32.00;;;15.43;;
21326;SDS011;10822;51.532;6.770;2024-01-16T06:55:04;22.65;;;13.13;;
21326;SDS011;10822;51.532;6.770;2024-01-16T06:57:30;23.95;;;13.30;;
21326;SDS011;10822;51.532;6.770;2024-01-16T06:59:56;20.90;;;11.80;;
21326;SDS011;10822;51.532;6.770;2024-01-16T07:02:22;26.48;;;12.45;;
21326;SDS011;10822;51.532;6.770;2024-01-16T07:04:48;19.98;;;11.02;;
21326;SDS011;10822;51.532;6.770;2024-01-16T07:07:14;19.92;;;9.77;;
21326;SDS011;10822;51.532;6.770;2024-01-16T07:09:39;19.73;;;8.68;;
21326;SDS011;10822;51.532;6.770;2024-01-16T07:12:05;14.27;;;7.47;;
21326;SDS011;10822;51.532;6.770;2024-01-16T07:14:32;17.80;;;7.78;;
21326;SDS011;10822;51.532;6.770;2024-01-16T07:16:58;17.58;;;7.82;;
21326;SDS011;10822;51.532;6.770;2024-01-16T07:19:24;16.08;;;7.47;;
21326;SDS011;10822;51.532;6.770;2024-01-16T07:21:50;15.35;;;7.43;;
21326;SDS011;10822;51.532;6.770;2024-01-16T07:24:16;14.60;;;7.18;;
21326;SDS011;10822;51.532;6.770;2024-01-16T07:26:42;12.15;;;7.45;;
21326;SDS011;10822;51.532;6.770;2024-01-16T07:29:08;18.88;;;7.28;;
21326;SDS011;10822;51.532;6.770;2024-01-16T07:31:34;13.55;;;6.78;;
21326;SDS011;10822;51.532;6.770;2024-01-16T07:34:00;13.27;;;6.60;;
21326;SDS011;10822;51.532;6.770;2024-01-16T07:36:26;16.27;;;6.40;;
21326;SDS011;10822;51.532;6.770;2024-01-16T07:38:52;10.98;;;6.28;;
21326;SDS011;10822;51.532;6.770;2024-01-16T07:41:18;13.75;;;6.07;;
21326;SDS011;10822;51.532;6.770;2024-01-16T07:43:44;13.68;;;6.22;;
21326;SDS011;10822;51.532;6.770;2024-01-16T07:46:10;14.45;;;6.38;;
21326;SDS011;10822;51.532;6.770;2024-01-16T07:48:36;11.88;;;6.30;;
21326;SDS011;10822;51.532;6.770;2024-01-16T07:51:02;12.48;;;6.53;;
21326;SDS011;10822;51.532;6.770;2024-01-16T07:53:28;11.32;;;5.68;;
21326;SDS011;10822;51.532;6.770;2024-01-16T07:55:54;14.95;;;6.20;;
21326;SDS011;10822;51.532;6.770;2024-01-16T07:58:21;17.80;;;7.00;;
21326;SDS011;10822;51.532;6.770;2024-01-16T08:00:47;12.93;;;5.63;;
21326;SDS011;10822;51.532;6.770;2024-01-16T08:03:13;13.15;;;6.20;;
21326;SDS011;10822;51.532;6.770;2024-01-16T08:05:39;14.93;;;4.95;;
21326;SDS011;10822;51.532;6.770;2024-01-16T08:08:08;12.50;;;5.25;;
21326;SDS011;10822;51.532;6.770;2024-01-16T08:10:37;11.77;;;4.93;;
21326;SDS011;10822;51.532;6.770;2024-01-16T08:13:03;15.30;;;5.65;;
21326;SDS011;10822;51.532;6.770;2024-01-16T08:15:29;12.32;;;5.07;;
21326;SDS011;10822;51.532;6.770;2024-01-16T08:17:55;17.50;;;5.20;;
21326;SDS011;10822;51.532;6.770;2024-01-16T08:20:21;10.73;;;4.40;;
21326;SDS011;10822;51.532;6.770;2024-01-16T08:22:48;13.02;;;4.93;;
21326;SDS011;10822;51.532;6.770;2024-01-16T08:25:15;12.05;;;4.10;;
21326;SDS011;10822;51.532;6.770;2024-01-16T08:27:41;11.75;;;4.80;;
21326;SDS011;10822;51.532;6.770;2024-01-16T08:30:08;12.13;;;5.93;;
21326;SDS011;10822;51.532;6.770;2024-01-16T08:32:36;12.73;;;6.15;;
21326;SDS011;10822;51.532;6.770;2024-01-16T08:35:02;15.50;;;5.68;;
21326;SDS011;10822;51.532;6.770;2024-01-16T08:37:30;10.65;;;4.20;;
21326;SDS011;10822;51.532;6.770;2024-01-16T08:39:56;9.90;;;3.88;;
21326;SDS011;10822;51.532;6.770;2024-01-16T08:42:22;10.15;;;4.20;;
21326;SDS011;10822;51.532;6.770;2024-01-16T08:44:48;9.25;;;3.97;;
21326;SDS011;10822;51.532;6.770;2024-01-16T08:47:14;12.40;;;4.32;;
21326;SDS011;10822;51.532;6.770;2024-01-16T08:49:40;14.50;;;4.72;;
21326;SDS011;10822;51.532;6.770;2024-01-16T08:52:06;7.65;;;3.47;;
21326;SDS011;10822;51.532;6.770;2024-01-16T08:54:32;9.48;;;3.78;;
21326;SDS011;10822;51.532;6.770;2024-01-16T08:56:58;9.40;;;3.70;;
21326;SDS011;10822;51.532;6.770;2024-01-16T08:59:24;11.73;;;3.67;;
21326;SDS011;10822;51.532;6.770;2024-01-16T09:01:50;11.15;;;3.63;;
21326;SDS011;10822;51.532;6.770;2024-01-16T09:04:16;7.20;;;3.20;;
21326;SDS011;10822;51.532;6.770;2024-01-16T09:06:42;12.65;;;3.20;;
21326;SDS011;10822;51.532;6.770;2024-01-16T09:09:08;10.40;;;3.50;;
21326;SDS011;10822;51.532;6.770;2024-01-16T09:11:34;8.13;;;3.42;;
21326;SDS011;10822;51.532;6.770;2024-01-16T09:14:00;9.00;;;3.63;;
21326;SDS011;10822;51.532;6.770;2024-01-16T09:16:26;10.63;;;3.50;;
21326;SDS011;10822;51.532;6.770;2024-01-16T09:18:52;8.60;;;3.05;;
21326;SDS011;10822;51.532;6.770;2024-01-16T09:21:19;8.80;;;3.10;;
21326;SDS011;10822;51.532;6.770;2024-01-16T09:23:46;9.13;;;3.90;;
21326;SDS011;10822;51.532;6.770;2024-01-16T09:26:12;9.43;;;3.33;;
21326;SDS011;10822;51.532;6.770;2024-01-16T09:28:37;11.10;;;3.60;;
21326;SDS011;10822;51.532;6.770;2024-01-16T09:31:05;15.95;;;3.90;;
21326;SDS011;10822;51.532;6.770;2024-01-16T09:33:31;12.77;;;3.53;;
21326;SDS011;10822;51.532;6.770;2024-01-16T09:35:57;12.52;;;3.80;;
21326;SDS011;10822;51.532;6.770;2024-01-16T09:38:24;13.82;;;5.03;;
21326;SDS011;10822;51.532;6.770;2024-01-16T09:40:50;8.73;;;3.97;;
21326;SDS011;10822;51.532;6.770;2024-01-16T09:43:17;9.75;;;3.42;;
21326;SDS011;10822;51.532;6.770;2024-01-16T09:45:43;12.15;;;3.40;;
21326;SDS011;10822;51.532;6.770;2024-01-16T09:48:10;11.07;;;4.10;;
21326;SDS011;10822;51.532;6.770;2024-01-16T09:50:37;9.77;;;3.83;;
21326;SDS011;10822;51.532;6.770;2024-01-16T09:53:03;10.80;;;4.07;;
21326;SDS011;10822;51.532;6.770;2024-01-16T09:55:29;9.88;;;4.10;;
21326;SDS011;10822;51.532;6.770;2024-01-16T09:57:55;11.10;;;4.28;;
21326;SDS011;10822;51.532;6.770;2024-01-16T10:00:22;10.90;;;4.35;;
21326;SDS011;10822;51.532;6.770;2024-01-16T10:02:50;10.00;;;3.95;;
21326;SDS011;10822;51.532;6.770;2024-01-16T10:05:17;14.88;;;4.88;;
21326;SDS011;10822;51.532;6.770;2024-01-16T10:07:42;11.23;;;4.47;;
21326;SDS011;10822;51.532;6.770;2024-01-16T10:10:09;11.23;;;4.50;;
21326;SDS011;10822;51.532;6.770;2024-01-16T10:12:38;13.35;;;3.92;;
21326;SDS011;10822;51.532;6.770;2024-01-16T10:15:05;10.90;;;4.80;;
21326;SDS011;10822;51.532;6.770;2024-01-16T10:17:39;9.07;;;4.40;;
21326;SDS011;10822;51.532;6.770;2024-01-16T10:20:06;11.13;;;3.75;;
21326;SDS011;10822;51.532;6.770;2024-01-16T10:22:32;11.15;;;4.25;;
21326;SDS011;10822;51.532;6.770;2024-01-16T10:25:05;11.57;;;4.00;;
21326;SDS011;10822;51.532;6.770;2024-01-16T10:27:31;11.30;;;3.75;;
21326;SDS011;10822;51.532;6.770;2024-01-16T10:29:58;11.20;;;4.00;;
21326;SDS011;10822;51.532;6.770;2024-01-16T10:32:27;9.43;;;3.90;;
21326;SDS011;10822;51.532;6.770;2024-01-16T10:37:30;9.35;;;4.32;;
21326;SDS011;10822;51.532;6.770;2024-01-16T10:39:56;11.88;;;4.70;;
21326;SDS011;10822;51.532;6.770;2024-01-16T10:42:22;11.73;;;4.10;;
21326;SDS011;10822;51.532;6.770;2024-01-16T10:44:54;10.77;;;4.18;;
21326;SDS011;10822;51.532;6.770;2024-01-16T10:47:23;11.25;;;4.15;;
21326;SDS011;10822;51.532;6.770;2024-01-16T10:49:49;9.32;;;4.35;;
21326;SDS011;10822;51.532;6.770;2024-01-16T10:52:15;10.70;;;4.22;;
21326;SDS011;10822;51.532;6.770;2024-01-16T10:54:43;10.85;;;4.25;;
21326;SDS011;10822;51.532;6.770;2024-01-16T10:57:10;10.55;;;3.72;;
21326;SDS011;10822;51.532;6.770;2024-01-16T10:59:39;8.75;;;3.67;;
21326;SDS011;10822;51.532;6.770;2024-01-16T11:04:35;9.75;;;3.95;;
21326;SDS011;10822;51.532;6.770;2024-01-16T11:07:02;8.07;;;4.00;;
21326;SDS011;10822;51.532;6.770;2024-01-16T11:09:29;10.60;;;3.92;;
21326;SDS011;10822;51.532;6.770;2024-01-16T11:11:55;11.57;;;4.40;;
21326;SDS011;10822;51.532;6.770;2024-01-16T11:14:22;14.18;;;5.85;;
21326;SDS011;10822;51.532;6.770;2024-01-16T11:16:49;11.50;;;4.20;;
21326;SDS011;10822;51.532;6.770;2024-01-16T11:19:15;11.27;;;4.80;;
21326;SDS011;10822;51.532;6.770;2024-01-16T11:21:42;15.25;;;6.43;;
21326;SDS011;10822;51.532;6.770;2024-01-16T11:24:09;14.35;;;5.50;;
21326;SDS011;10822;51.532;6.770;2024-01-16T11:26:35;12.65;;;4.50;;
21326;SDS011;10822;51.532;6.770;2024-01-16T11:31:50;10.25;;;4.57;;
21326;SDS011;10822;51.532;6.770;2024-01-16T11:34:16;14.73;;;4.72;;
21326;SDS011;10822;51.532;6.770;2024-01-16T11:37:02;10.40;;;4.22;;
21326;SDS011;10822;51.532;6.770;2024-01-16T11:39:30;11.05;;;4.55;;
21326;SDS011;10822;51.532;6.770;2024-01-16T11:41:57;12.10;;;5.30;;
21326;SDS011;10822;51.532;6.770;2024-01-16T11:44:43;11.65;;;4.63;;
21326;SDS011;10822;51.532;6.770;2024-01-16T11:47:20;12.52;;;4.03;;
21326;SDS011;10822;51.532;6.770;2024-01-16T11:49:47;9.00;;;3.75;;
21326;SDS011;10822;51.532;6.770;2024-01-16T11:52:13;11.52;;;4.15;;
21326;SDS011;10822;51.532;6.770;2024-01-16T11:54:40;9.82;;;4.70;;
21326;SDS011;10822;51.532;6.770;2024-01-16T11:59:58;11.35;;;4.20;;
21326;SDS011;10822;51.532;6.770;2024-01-16T12:02:37;8.77;;;3.95;;
21326;SDS011;10822;51.532;6.770;2024-01-16T12:05:10;11.90;;;4.30;;
21326;SDS011;10822;51.532;6.770;2024-01-16T12:07:42;11.55;;;4.32;;
21326;SDS011;10822;51.532;6.770;2024-01-16T12:10:08;12.05;;;4.63;;
21326;SDS011;10822;51.532;6.770;2024-01-16T12:12:34;10.23;;;4.30;;
21326;SDS011;10822;51.532;6.770;2024-01-16T12:15:00;11.77;;;4.38;;
21326;SDS011;10822;51.532;6.770;2024-01-16T12:17:26;8.13;;;4.20;;
21326;SDS011;10822;51.532;6.770;2024-01-16T12:19:52;12.85;;;4.40;;
21326;SDS011;10822;51.532;6.770;2024-01-16T12:22:18;10.27;;;4.65;;
21326;SDS011;10822;51.532;6.770;2024-01-16T12:24:47;9.55;;;4.20;;
21326;SDS011;10822;51.532;6.770;2024-01-16T12:27:13;9.05;;;4.45;;
21326;SDS011;10822;51.532;6.770;2024-01-16T12:29:40;8.38;;;3.72;;
21326;SDS011;10822;51.532;6.770;2024-01-16T12:34:34;8.13;;;4.18;;
21326;SDS011;10822;51.532;6.770;2024-01-16T12:37:06;9.90;;;4.18;;
21326;SDS011;10822;51.532;6.770;2024-01-16T12:39:33;11.75;;;4.38;;
21326;SDS011;10822;51.532;6.770;2024-01-16T12:42:00;10.07;;;5.25;;
21326;SDS011;10822;51.532;6.770;2024-01-16T12:44:29;9.90;;;4.80;;
21326;SDS011;10822;51.532;6.770;2024-01-16T12:46:55;8.70;;;4.10;;
21326;SDS011;10822;51.532;6.770;2024-01-16T12:49:22;8.30;;;3.85;;
21326;SDS011;10822;51.532;6.770;2024-01-16T12:51:48;9.35;;;4.57;;
21326;SDS011;10822;51.532;6.770;2024-01-16T12:54:15;8.82;;;3.75;;
21326;SDS011;10822;51.532;6.770;2024-01-16T12:56:41;10.00;;;3.72;;
21326;SDS011;10822;51.532;6.770;2024-01-16T12:59:11;14.32;;;4.65;;
21326;SDS011;10822;51.532;6.770;2024-01-16T13:01:40;15.52;;;6.70;;
21326;SDS011;10822;51.532;6.770;2024-01-16T13:04:07;29.20;;;12.00;;
21326;SDS011;10822;51.532;6.770;2024-01-16T13:06:33;15.75;;;6.72;;
21326;SDS011;10822;51.532;6.770;2024-01-16T13:09:06;15.45;;;6.18;;
21326;SDS011;10822;51.532;6.770;2024-01-16T13:11:44;9.75;;;4.15;;
21326;SDS011;10822;51.532;6.770;2024-01-16T13:14:10;10.88;;;4.72;;
21326;SDS011;10822;51.532;6.770;2024-01-16T13:16:36;11.95;;;5.55;;
21326;SDS011;10822;51.532;6.770;2024-01-16T13:19:02;10.77;;;4.43;;
21326;SDS011;10822;51.532;6.770;2024-01-16T13:21:30;11.75;;;4.35;;
21326;SDS011;10822;51.532;6.770;2024-01-16T13:23:56;9.55;;;4.22;;
21326;SDS011;10822;51.532;6.770;2024-01-16T13:26:22;6.05;;;3.92;;
21326;SDS011;10822;51.532;6.770;2024-01-16T13:28:48;10.68;;;4.60;;
21326;SDS011;10822;51.532;6.770;2024-01-16T13:31:14;10.93;;;4.75;;
21326;SDS011;10822;51.532;6.770;2024-01-16T13:33:41;10.73;;;4.80;;
21326;SDS011;10822;51.532;6.770;2024-01-16T13:36:08;12.27;;;4.75;;
21326;SDS011;10822;51.532;6.770;2024-01-16T13:38:34;8.48;;;4.70;;
21326;SDS011;10822;51.532;6.770;2024-01-16T13:41:00;13.32;;;4.63;;
21326;SDS011;10822;51.532;6.770;2024-01-16T13:43:27;8.15;;;3.97;;
21326;SDS011;10822;51.532;6.770;2024-01-16T13:45:53;8.30;;;4.25;;
21326;SDS011;10822;51.532;6.770;2024-01-16T13:48:20;13.48;;;4.45;;
21326;SDS011;10822;51.532;6.770;2024-01-16T13:50:46;13.48;;;5.35;;
21326;SDS011;10822;51.532;6.770;2024-01-16T13:53:12;14.40;;;4.93;;
21326;SDS011;10822;51.532;6.770;2024-01-16T13:55:42;13.50;;;5.63;;
21326;SDS011;10822;51.532;6.770;2024-01-16T13:58:08;12.85;;;5.30;;
21326;SDS011;10822;51.532;6.770;2024-01-16T14:00:34;10.82;;;4.68;;
21326;SDS011;10822;51.532;6.770;2024-01-16T14:03:00;13.18;;;5.10;;
21326;SDS011;10822;51.532;6.770;2024-01-16T14:05:28;14.43;;;5.03;;
21326;SDS011;10822;51.532;6.770;2024-01-16T14:07:54;13.00;;;5.40;;
21326;SDS011;10822;51.532;6.770;2024-01-16T14:10:20;9.40;;;4.50;;
21326;SDS011;10822;51.532;6.770;2024-01-16T14:12:48;12.45;;;4.70;;
21326;SDS011;10822;51.532;6.770;2024-01-16T14:15:15;8.40;;;4.38;;
21326;SDS011;10822;51.532;6.770;2024-01-16T14:17:44;8.57;;;4.10;;
21326;SDS011;10822;51.532;6.770;2024-01-16T14:20:10;8.70;;;4.82;;
21326;SDS011;10822;51.532;6.770;2024-01-16T14:22:37;13.10;;;4.57;;
21326;SDS011;10822;51.532;6.770;2024-01-16T14:25:03;11.45;;;4.53;;
21326;SDS011;10822;51.532;6.770;2024-01-16T14:27:36;9.65;;;5.20;;
21326;SDS011;10822;51.532;6.770;2024-01-16T14:30:01;9.85;;;5.07;;
21326;SDS011;10822;51.532;6.770;2024-01-16T14:32:27;9.18;;;4.47;;
21326;SDS011;10822;51.532;6.770;2024-01-16T14:34:54;10.40;;;4.00;;
21326;SDS011;10822;51.532;6.770;2024-01-16T14:37:20;9.60;;;4.13;;
21326;SDS011;10822;51.532;6.770;2024-01-16T14:39:46;9.02;;;4.20;;
21326;SDS011;10822;51.532;6.770;2024-01-16T14:42:12;9.35;;;4.68;;
21326;SDS011;10822;51.532;6.770;2024-01-16T14:44:38;10.60;;;4.47;;
21326;SDS011;10822;51.532;6.770;2024-01-16T14:47:04;11.88;;;5.22;;